createdAt,value
2018-12-01T00:00:18.064Z,9.47
2018-12-01T00:02:46.415Z,9.10
2018-12-01T00:05:14.735Z,9.13
2018-12-01T00:07:43.089Z,8.80
2018-12-01T00:10:11.530Z,9.03
2018-12-01T00:12:39.868Z,9.10
2018-12-01T00:15:10.257Z,9.13
2018-12-01T00:17:38.709Z,9.30
2018-12-01T00:20:09.653Z,9.53
2018-12-01T00:22:37.977Z,9.67
2018-12-01T00:25:07.455Z,9.50
2018-12-01T00:27:36.028Z,9.93
2018-12-01T00:30:07.609Z,9.33
2018-12-01T00:32:35.949Z,9.70
2018-12-01T00:35:04.509Z,9.77
2018-12-01T00:37:32.842Z,8.83
2018-12-01T00:40:01.250Z,9.87
2018-12-01T00:42:29.581Z,8.97
2018-12-01T00:44:57.953Z,9.60
2018-12-01T00:47:26.574Z,9.67
2018-12-01T00:49:55.129Z,9.43
2018-12-01T00:52:23.450Z,9.67
2018-12-01T00:54:51.805Z,8.87
2018-12-01T00:57:20.150Z,10.03
2018-12-01T00:59:48.562Z,9.27
2018-12-01T01:02:22.131Z,9.13
2018-12-01T01:04:50.485Z,9.33
2018-12-01T01:07:18.821Z,9.90
2018-12-01T01:09:47.181Z,9.03
2018-12-01T01:12:15.515Z,8.60
2018-12-01T01:14:43.874Z,8.87
2018-12-01T01:17:12.261Z,8.50
2018-12-01T01:19:40.593Z,9.17
2018-12-01T01:22:08.929Z,9.30
2018-12-01T01:24:37.281Z,9.10
2018-12-01T01:27:05.936Z,8.90
2018-12-01T01:29:34.343Z,9.13
2018-12-01T01:32:02.676Z,8.83
2018-12-01T01:34:31.633Z,9.20
2018-12-01T01:36:59.962Z,8.70
2018-12-01T01:39:28.305Z,8.93
2018-12-01T01:41:56.639Z,8.00
2018-12-01T01:44:25.006Z,8.50
2018-12-01T01:46:53.333Z,8.97
2018-12-01T01:49:21.695Z,9.10
2018-12-01T01:51:50.027Z,8.03
2018-12-01T01:54:18.362Z,9.23
2018-12-01T01:56:46.830Z,8.73
2018-12-01T01:59:15.166Z,8.83
2018-12-01T02:01:43.513Z,9.23
2018-12-01T02:04:11.974Z,8.70
2018-12-01T02:06:41.307Z,8.90
2018-12-01T02:09:09.642Z,8.70
2018-12-01T02:11:37.994Z,9.80
2018-12-01T02:14:06.340Z,10.03
2018-12-01T02:16:35.288Z,8.60
2018-12-01T02:19:03.697Z,9.57
2018-12-01T02:21:32.325Z,9.67
2018-12-01T02:24:01.976Z,8.33
2018-12-01T02:26:30.588Z,9.80
2018-12-01T02:28:58.910Z,8.93
2018-12-01T02:31:27.775Z,8.70
2018-12-01T02:33:56.083Z,8.57
2018-12-01T02:36:24.409Z,8.93
2018-12-01T02:38:52.709Z,8.43
2018-12-01T02:41:21.042Z,8.50
2018-12-01T02:44:00.648Z,8.53
2018-12-01T02:46:40.456Z,8.80
2018-12-01T02:49:08.759Z,8.00
2018-12-01T02:51:37.096Z,8.87
2018-12-01T02:54:05.484Z,8.70
2018-12-01T02:56:33.821Z,9.20
2018-12-01T02:59:02.130Z,8.57
2018-12-01T03:01:30.488Z,8.67
2018-12-01T03:03:58.836Z,8.87
2018-12-01T03:06:27.160Z,8.27
2018-12-01T03:08:55.515Z,8.70
2018-12-01T03:11:23.839Z,7.90
2018-12-01T03:13:52.142Z,8.50
2018-12-01T03:16:20.598Z,8.03
2018-12-01T03:18:48.905Z,7.73
2018-12-01T03:21:17.229Z,8.20
2018-12-01T03:23:45.539Z,8.77
2018-12-01T03:26:13.941Z,8.20
2018-12-01T03:28:42.254Z,8.40
2018-12-01T03:31:10.573Z,8.20
2018-12-01T03:33:38.880Z,7.73
2018-12-01T03:36:07.269Z,7.80
2018-12-01T03:38:35.564Z,8.60
2018-12-01T03:41:03.936Z,8.57
2018-12-01T03:43:32.242Z,7.83
2018-12-01T03:46:00.549Z,8.37
2018-12-01T03:48:28.869Z,7.93
2018-12-01T03:50:57.229Z,8.60
2018-12-01T03:53:25.537Z,7.67
2018-12-01T03:55:53.868Z,8.10
2018-12-01T03:58:22.195Z,8.60
2018-12-01T04:00:50.508Z,9.20
2018-12-01T04:03:18.829Z,8.80
2018-12-01T04:05:47.169Z,8.47
2018-12-01T04:08:15.484Z,7.97
2018-12-01T04:10:43.797Z,7.60
2018-12-01T04:13:12.208Z,8.00
2018-12-01T04:15:40.718Z,7.80
2018-12-01T04:18:09.064Z,8.67
2018-12-01T04:20:37.360Z,8.07
2018-12-01T04:23:06.009Z,7.70
2018-12-01T04:25:34.313Z,7.87
2018-12-01T04:28:02.646Z,7.90
2018-12-01T04:30:30.944Z,8.03
2018-12-01T04:32:59.277Z,8.30
2018-12-01T04:35:27.604Z,8.17
2018-12-01T04:37:56.289Z,8.57
2018-12-01T04:40:25.127Z,8.33
2018-12-01T04:42:53.525Z,8.20
2018-12-01T04:45:21.851Z,7.67
2018-12-01T04:47:50.209Z,8.70
2018-12-01T04:50:18.948Z,7.20
2018-12-01T04:52:48.165Z,7.47
2018-12-01T04:55:17.580Z,7.63
2018-12-01T04:57:45.874Z,7.60
2018-12-01T05:00:18.243Z,7.43
2018-12-01T05:02:46.557Z,7.40
2018-12-01T05:05:18.893Z,7.53
2018-12-01T05:07:47.248Z,7.63
2018-12-01T05:10:16.256Z,7.80
2018-12-01T05:12:44.557Z,7.90
2018-12-01T05:15:17.574Z,6.97
2018-12-01T05:17:46.190Z,7.60
2018-12-01T05:20:19.421Z,7.13
2018-12-01T05:22:48.172Z,7.47
2018-12-01T05:25:16.548Z,7.57
2018-12-01T05:27:44.889Z,8.07
2018-12-01T05:30:13.246Z,7.70
2018-12-01T05:32:41.572Z,7.07
2018-12-01T05:35:16.128Z,8.17
2018-12-01T05:37:44.443Z,7.93
2018-12-01T05:40:13.416Z,7.70
2018-12-01T05:42:41.733Z,6.63
2018-12-01T05:45:15.505Z,7.03
2018-12-01T05:47:43.850Z,7.30
2018-12-01T05:50:13.101Z,6.57
2018-12-01T05:52:41.402Z,6.67
2018-12-01T05:55:11.560Z,7.00
2018-12-01T05:57:39.859Z,7.67
2018-12-01T06:00:09.778Z,7.23
2018-12-01T06:02:38.080Z,7.10
2018-12-01T06:05:06.743Z,7.00
2018-12-01T06:07:35.072Z,6.90
2018-12-01T06:10:03.589Z,6.80
2018-12-01T06:12:31.917Z,6.50
2018-12-01T06:15:00.232Z,6.73
2018-12-01T06:17:28.565Z,6.87
2018-12-01T06:19:56.869Z,7.30
2018-12-01T06:22:25.200Z,6.23
2018-12-01T06:24:53.506Z,6.57
2018-12-01T06:27:21.829Z,6.70
2018-12-01T06:29:50.129Z,6.43
2018-12-01T06:32:18.459Z,6.70
2018-12-01T06:34:46.849Z,6.23
2018-12-01T06:37:15.197Z,6.47
2018-12-01T06:39:43.527Z,6.23
2018-12-01T06:42:11.885Z,6.90
2018-12-01T06:44:40.493Z,6.70
2018-12-01T06:47:08.860Z,6.13
2018-12-01T06:49:37.168Z,5.87
2018-12-01T06:52:05.725Z,6.27
2018-12-01T06:54:34.036Z,6.00
2018-12-01T06:57:02.364Z,5.77
2018-12-01T06:59:30.764Z,5.57
2018-12-01T07:01:59.092Z,5.80
2018-12-01T07:04:27.396Z,5.23
2018-12-01T07:06:55.978Z,5.27
2018-12-01T07:09:24.291Z,5.50
2018-12-01T07:11:52.620Z,6.10
2018-12-01T07:14:20.950Z,5.40
2018-12-01T07:16:49.356Z,5.57
2018-12-01T07:19:18.445Z,5.33
2018-12-01T07:21:46.829Z,5.70
2018-12-01T07:24:15.228Z,5.30
2018-12-01T07:26:43.631Z,5.50
2018-12-01T07:29:11.979Z,6.00
2018-12-01T07:31:40.352Z,5.10
2018-12-01T07:34:08.748Z,5.40
2018-12-01T07:36:37.138Z,5.50
2018-12-01T07:39:07.671Z,5.40
2018-12-01T07:41:36.036Z,5.17
2018-12-01T07:44:04.614Z,5.70
2018-12-01T07:46:32.953Z,4.90
2018-12-01T07:49:01.281Z,5.73
2018-12-01T07:51:29.624Z,5.50
2018-12-01T07:53:57.941Z,4.87
2018-12-01T07:56:26.290Z,6.17
2018-12-01T07:58:54.641Z,5.63
2018-12-01T08:01:23.063Z,5.77
2018-12-01T08:03:51.407Z,5.50
2018-12-01T08:06:19.761Z,5.53
2018-12-01T08:08:48.268Z,5.23
2018-12-01T08:11:16.609Z,4.87
2018-12-01T08:13:45.005Z,5.53
2018-12-01T08:16:13.366Z,5.17
2018-12-01T08:18:41.742Z,5.10
2018-12-01T08:21:10.081Z,5.00
2018-12-01T08:23:38.458Z,4.93
2018-12-01T08:26:07.040Z,4.60
2018-12-01T08:28:35.512Z,5.47
2018-12-01T08:31:03.901Z,4.50
2018-12-01T08:33:32.298Z,4.67
2018-12-01T08:36:00.643Z,4.07
2018-12-01T08:38:28.981Z,4.70
2018-12-01T08:40:57.302Z,4.70
2018-12-01T08:43:25.627Z,4.67
2018-12-01T08:45:53.932Z,4.77
2018-12-01T08:48:22.421Z,4.60
2018-12-01T08:50:50.749Z,5.67
2018-12-01T08:53:19.076Z,4.33
2018-12-01T08:55:48.588Z,4.60
2018-12-01T08:58:16.905Z,4.17
2018-12-01T09:00:45.213Z,4.63
2018-12-01T09:03:17.218Z,4.90
2018-12-01T09:05:45.520Z,4.37
2018-12-01T09:08:13.841Z,4.30
2018-12-01T09:10:42.198Z,4.13
2018-12-01T09:13:10.530Z,4.53
2018-12-01T09:15:38.822Z,3.77
2018-12-01T09:18:07.198Z,4.00
2018-12-01T09:20:35.508Z,3.83
2018-12-01T09:23:03.851Z,3.77
2018-12-01T09:25:32.168Z,3.70
2018-12-01T09:28:00.484Z,3.70
2018-12-01T09:30:30.073Z,3.80
2018-12-01T09:32:58.452Z,4.10
2018-12-01T09:35:26.764Z,3.50
2018-12-01T09:37:55.074Z,3.60
2018-12-01T09:40:24.025Z,3.97
2018-12-01T09:42:52.368Z,3.40
2018-12-01T09:45:22.824Z,3.60
2018-12-01T09:47:51.944Z,3.67
2018-12-01T09:50:20.272Z,3.00
2018-12-01T09:52:49.936Z,3.57
2018-12-01T09:55:19.641Z,3.33
2018-12-01T09:57:48.412Z,3.40
2018-12-01T10:00:20.092Z,3.80
2018-12-01T10:02:48.496Z,3.60
2018-12-01T10:05:18.066Z,3.23
2018-12-01T10:07:46.579Z,3.87
2018-12-01T10:10:16.044Z,3.03
2018-12-01T10:12:44.952Z,3.27
2018-12-01T10:15:14.557Z,3.67
2018-12-01T10:17:42.907Z,3.20
2018-12-01T10:20:16.753Z,3.70
2018-12-01T10:22:45.120Z,3.43
2018-12-01T10:25:16.355Z,3.80
2018-12-01T10:27:45.969Z,3.60
2018-12-01T10:30:16.148Z,3.37
2018-12-01T10:32:44.680Z,3.23
2018-12-01T10:35:14.206Z,3.37
2018-12-01T10:37:42.561Z,3.33
2018-12-01T10:40:12.100Z,3.47
2018-12-01T10:42:40.398Z,3.03
2018-12-01T10:45:11.333Z,3.60
2018-12-01T10:47:40.017Z,3.50
2018-12-01T10:50:10.325Z,3.70
2018-12-01T10:52:39.185Z,3.10
2018-12-01T10:55:10.784Z,3.23
2018-12-01T10:57:39.294Z,3.10
2018-12-01T11:00:17.850Z,2.80
2018-12-01T11:02:55.590Z,2.97
2018-12-01T11:05:21.311Z,2.50
2018-12-01T11:07:50.643Z,3.00
2018-12-01T11:10:19.144Z,3.30
2018-12-01T11:12:47.684Z,3.40
2018-12-01T11:15:16.308Z,2.63
2018-12-01T11:17:44.668Z,3.13
2018-12-01T11:20:13.006Z,2.57
2018-12-01T11:22:41.329Z,3.10
2018-12-01T11:25:10.938Z,3.00
2018-12-01T11:27:39.313Z,2.83
2018-12-01T11:30:12.057Z,3.07
2018-12-01T11:32:40.570Z,3.00
2018-12-01T11:35:09.096Z,3.10
2018-12-01T11:37:37.749Z,3.00
2018-12-01T11:40:08.940Z,2.93
2018-12-01T11:42:37.269Z,3.00
2018-12-01T11:45:08.496Z,2.80
2018-12-01T11:47:36.853Z,2.97
2018-12-01T11:50:08.639Z,2.87
2018-12-01T11:52:38.361Z,2.40
2018-12-01T11:55:12.651Z,2.70
2018-12-01T11:57:42.211Z,2.63
2018-12-01T12:00:14.010Z,2.80
2018-12-01T12:02:42.354Z,2.53
2018-12-01T12:05:11.717Z,2.50
2018-12-01T12:07:51.490Z,2.47
2018-12-01T12:10:19.857Z,2.77
2018-12-01T12:12:48.184Z,2.60
2018-12-01T12:15:16.641Z,2.20
2018-12-01T12:17:46.601Z,2.00
2018-12-01T12:20:15.068Z,2.30
2018-12-01T12:22:43.439Z,2.47
2018-12-01T12:25:11.777Z,2.13
2018-12-01T12:27:40.096Z,2.33
2018-12-01T12:30:15.625Z,2.17
2018-12-01T12:32:44.542Z,2.13
2018-12-01T12:35:14.137Z,2.50
2018-12-01T12:37:42.459Z,2.20
2018-12-01T12:40:13.080Z,2.37
2018-12-01T12:42:41.402Z,2.57
2018-12-01T12:45:10.993Z,2.17
2018-12-01T12:47:39.315Z,2.30
2018-12-01T12:50:15.192Z,2.67
2018-12-01T12:52:44.149Z,2.37
2018-12-01T12:55:15.293Z,2.13
2018-12-01T12:57:43.830Z,2.30
2018-12-01T13:00:21.669Z,2.33
2018-12-01T13:02:59.201Z,2.53
2018-12-01T13:05:30.861Z,2.40
2018-12-01T13:07:59.173Z,2.97
2018-12-01T13:10:27.520Z,2.90
2018-12-01T13:12:55.996Z,2.60
2018-12-01T13:15:24.324Z,2.97
2018-12-01T13:17:52.661Z,2.77
2018-12-01T13:20:23.092Z,3.03
2018-12-01T13:22:53.633Z,3.00
2018-12-01T13:25:21.966Z,3.13
2018-12-01T13:27:56.712Z,3.63
2018-12-01T13:30:26.572Z,3.00
2018-12-01T13:32:54.906Z,3.70
2018-12-01T13:35:23.251Z,3.50
2018-12-01T13:37:51.589Z,2.80
2018-12-01T13:40:19.921Z,3.27
2018-12-01T13:42:48.269Z,3.00
2018-12-01T13:45:18.153Z,3.10
2018-12-01T13:47:47.854Z,2.97
2018-12-01T13:50:17.143Z,2.83
2018-12-01T13:52:48.932Z,3.43
2018-12-01T13:55:17.237Z,2.90
2018-12-01T13:57:45.578Z,3.03
2018-12-01T14:00:16.229Z,3.07
2018-12-01T14:02:44.573Z,3.00
2018-12-01T14:05:13.070Z,3.50
2018-12-01T14:07:41.501Z,3.67
2018-12-01T14:10:15.621Z,3.13
2018-12-01T14:12:45.285Z,2.97
2018-12-01T14:15:15.598Z,3.20
2018-12-01T14:17:43.970Z,2.60
2018-12-01T14:20:15.141Z,2.67
2018-12-01T14:22:44.699Z,2.70
2018-12-01T14:25:13.814Z,2.47
2018-12-01T14:27:43.652Z,2.27
2018-12-01T14:30:13.973Z,2.50
2018-12-01T14:32:42.341Z,2.43
2018-12-01T14:35:15.029Z,2.33
2018-12-01T14:37:43.637Z,2.40
2018-12-01T14:40:13.057Z,2.03
2018-12-01T14:42:42.009Z,2.47
2018-12-01T14:45:14.577Z,2.43
2018-12-01T14:47:42.956Z,2.47
2018-12-01T14:50:13.477Z,2.80
2018-12-01T14:52:42.296Z,2.10
2018-12-01T14:55:14.661Z,2.23
2018-12-01T14:57:43.013Z,2.87
2018-12-01T15:00:14.189Z,2.80
2018-12-01T15:02:42.528Z,2.77
2018-12-01T15:05:11.545Z,3.13
2018-12-01T15:07:39.885Z,2.90
2018-12-01T15:10:13.317Z,2.80
2018-12-01T15:12:41.661Z,2.87
2018-12-01T15:15:11.932Z,2.97
2018-12-01T15:17:40.317Z,2.63
2018-12-01T15:20:11.169Z,2.77
2018-12-01T15:22:39.753Z,2.93
2018-12-01T15:25:10.884Z,2.90
2018-12-01T15:27:39.224Z,2.70
2018-12-01T15:30:18.069Z,2.80
2018-12-01T15:33:06.853Z,2.70
2018-12-01T15:35:35.216Z,2.47
2018-12-01T15:38:03.617Z,2.73
2018-12-01T15:40:31.952Z,2.53
2018-12-01T15:43:00.322Z,2.20
2018-12-01T15:45:28.673Z,2.27
2018-12-01T15:47:57.033Z,2.57
2018-12-01T15:50:25.360Z,2.50
2018-12-01T15:52:54.905Z,2.37
2018-12-01T15:55:23.902Z,2.80
2018-12-01T15:57:52.640Z,2.50
2018-12-01T16:00:22.004Z,2.53
2018-12-01T16:02:50.437Z,2.70
2018-12-01T16:05:19.689Z,2.72
2018-12-01T16:07:49.142Z,2.30
2018-12-01T16:10:19.280Z,2.37
2018-12-01T16:12:49.840Z,2.40
2018-12-01T16:15:22.946Z,2.20
2018-12-01T16:17:52.262Z,2.30
2018-12-01T16:20:21.376Z,2.33
2018-12-01T16:22:51.411Z,2.10
2018-12-01T16:25:21.979Z,1.97
2018-12-01T16:27:51.246Z,2.20
2018-12-01T16:30:36.532Z,2.00
2018-12-01T16:33:07.284Z,2.60
2018-12-01T16:35:35.585Z,2.80
2018-12-01T16:38:04.655Z,3.07
2018-12-01T16:40:42.625Z,3.20
2018-12-01T16:43:13.441Z,3.27
2018-12-01T16:45:44.093Z,3.27
2018-12-01T16:48:13.774Z,3.00
2018-12-01T16:50:43.419Z,3.30
2018-12-01T16:53:14.343Z,3.23
2018-12-01T16:55:42.877Z,3.50
2018-12-01T16:58:12.439Z,3.67
2018-12-01T17:00:41.553Z,4.10
2018-12-01T17:03:11.681Z,3.97
2018-12-01T17:05:43.338Z,3.90
2018-12-01T17:08:12.790Z,3.77
2018-12-01T17:10:41.879Z,4.07
2018-12-01T17:13:12.038Z,3.53
2018-12-01T17:15:41.606Z,3.90
2018-12-01T17:18:10.300Z,3.30
2018-12-01T17:20:39.823Z,3.30
2018-12-01T17:23:11.932Z,3.30
2018-12-01T17:25:41.905Z,3.27
2018-12-01T17:28:15.395Z,3.37
2018-12-01T17:30:44.571Z,3.40
2018-12-01T17:33:13.259Z,4.07
2018-12-01T17:35:41.997Z,3.53
2018-12-01T17:38:12.858Z,4.37
2018-12-01T17:40:50.005Z,4.20
2018-12-01T17:43:22.618Z,4.70
2018-12-01T17:45:51.084Z,6.00
2018-12-01T17:48:20.739Z,4.23
2018-12-01T17:50:49.210Z,5.13
2018-12-01T17:53:18.856Z,4.07
2018-12-01T17:55:48.139Z,4.17
2018-12-01T17:58:16.633Z,3.67
2018-12-01T18:00:45.995Z,3.50
2018-12-01T18:03:15.303Z,3.80
2018-12-01T18:05:46.464Z,3.33
2018-12-01T18:08:21.765Z,3.37
2018-12-01T18:10:53.381Z,3.30
2018-12-01T18:13:23.098Z,3.57
2018-12-01T18:15:51.729Z,3.60
2018-12-01T18:18:20.815Z,3.95
2018-12-01T18:20:50.437Z,3.70
2018-12-01T18:23:20.257Z,3.27
2018-12-01T18:25:52.122Z,3.20
2018-12-01T18:28:24.157Z,3.40
2018-12-01T18:30:53.006Z,3.33
2018-12-01T18:33:25.655Z,3.47
2018-12-01T18:35:55.657Z,3.50
2018-12-01T18:38:24.345Z,3.67
2018-12-01T18:40:53.257Z,3.70
2018-12-01T18:43:23.171Z,3.30
2018-12-01T18:45:55.221Z,3.23
2018-12-01T18:48:23.608Z,3.57
2018-12-01T18:50:52.712Z,3.90
2018-12-01T18:53:21.536Z,3.47
2018-12-01T18:55:53.271Z,3.10
2018-12-01T18:58:22.053Z,3.13
2018-12-01T19:00:54.158Z,3.30
2018-12-01T19:03:28.238Z,3.10
2018-12-01T19:05:57.445Z,3.25
2018-12-01T19:08:26.449Z,2.90
2018-12-01T19:10:55.127Z,3.10
2018-12-01T19:13:23.814Z,2.70
2018-12-01T19:15:52.283Z,3.87
2018-12-01T19:18:21.405Z,3.33
2018-12-01T19:20:50.474Z,3.50
2018-12-01T19:23:19.490Z,3.00
2018-12-01T19:25:49.477Z,3.40
2018-12-01T19:28:18.616Z,3.57
2018-12-01T19:30:46.985Z,7.37
2018-12-01T19:33:18.628Z,4.50
2018-12-01T19:35:48.932Z,4.60
2018-12-01T19:38:20.670Z,4.80
2018-12-01T19:40:49.049Z,3.40
2018-12-01T19:43:17.344Z,3.13
2018-12-01T19:45:45.660Z,3.00
2018-12-01T19:48:14.160Z,2.90
2018-12-01T19:50:42.560Z,3.43
2018-12-01T19:53:13.215Z,3.00
2018-12-01T19:55:41.800Z,3.30
2018-12-01T19:58:13.804Z,3.00
2018-12-01T20:00:43.477Z,3.37
2018-12-01T20:03:14.206Z,3.13
2018-12-01T20:05:42.517Z,3.60
2018-12-01T20:08:10.977Z,4.27
2018-12-01T20:10:45.341Z,3.73
2018-12-01T20:13:20.227Z,3.73
2018-12-01T20:15:50.552Z,3.57
2018-12-01T20:18:20.557Z,3.50
2018-12-01T20:20:48.893Z,3.50
2018-12-01T20:23:17.185Z,3.70
2018-12-01T20:25:47.361Z,3.40
2018-12-01T20:28:15.713Z,3.10
2018-12-01T20:30:44.080Z,3.00
2018-12-01T20:33:12.781Z,2.80
2018-12-01T20:36:25.639Z,2.80
2018-12-01T20:38:57.158Z,2.87
2018-12-01T20:41:25.495Z,2.93
2018-12-01T20:43:53.815Z,3.30
2018-12-01T20:46:22.136Z,2.90
2018-12-01T20:48:50.536Z,2.90
2018-12-01T20:51:18.881Z,2.93
2018-12-01T20:53:47.172Z,3.40
2018-12-01T20:56:18.281Z,2.97
2018-12-01T20:58:46.596Z,2.90
2018-12-01T21:01:15.153Z,3.13
2018-12-01T21:03:43.448Z,3.17
2018-12-01T21:06:11.759Z,3.63
2018-12-01T21:08:40.054Z,2.90
2018-12-01T21:11:10.628Z,3.57
2018-12-01T21:13:39.018Z,3.23
2018-12-01T21:16:07.796Z,3.43
2018-12-01T21:18:36.120Z,3.87
2018-12-01T21:21:04.460Z,2.97
2018-12-01T21:23:32.948Z,3.33
2018-12-01T21:26:01.253Z,3.37
2018-12-01T21:28:29.573Z,3.47
2018-12-01T21:30:57.876Z,3.63
2018-12-01T21:33:28.296Z,3.20
2018-12-01T21:35:56.729Z,3.50
2018-12-01T21:38:25.058Z,3.43
2018-12-01T21:40:53.416Z,3.57
2018-12-01T21:43:21.766Z,3.77
2018-12-01T21:45:50.177Z,3.77
2018-12-01T21:48:18.577Z,3.97
2018-12-01T21:50:47.649Z,3.47
2018-12-01T21:53:21.311Z,4.27
2018-12-01T21:55:49.611Z,3.83
2018-12-01T21:58:17.927Z,3.70
2018-12-01T22:00:48.836Z,3.63
2018-12-01T22:03:17.952Z,3.30
2018-12-01T22:05:49.004Z,3.73
2018-12-01T22:08:17.598Z,4.00
2018-12-01T22:10:49.571Z,3.80
2018-12-01T22:13:17.884Z,3.57
2018-12-01T22:15:46.189Z,3.47
2018-12-01T22:18:14.517Z,3.40
2018-12-01T22:20:43.299Z,3.60
2018-12-01T22:23:11.601Z,4.57
2018-12-01T22:25:40.005Z,3.63
2018-12-01T22:28:10.669Z,3.37
2018-12-01T22:30:39.611Z,3.50
2018-12-01T22:33:13.684Z,3.07
2018-12-01T22:35:43.971Z,3.00
2018-12-01T22:38:12.984Z,3.03
2018-12-01T22:40:42.797Z,2.83
2018-12-01T22:43:11.914Z,3.13
2018-12-01T22:45:40.508Z,3.00
2018-12-01T22:48:10.975Z,2.90
2018-12-01T22:50:41.161Z,2.70
2018-12-01T22:53:10.038Z,2.70
2018-12-01T22:55:40.102Z,2.70
2018-12-01T22:58:14.285Z,2.43
2018-12-01T23:01:02.300Z,2.93
2018-12-01T23:03:32.616Z,2.90
2018-12-01T23:06:01.790Z,2.70
2018-12-01T23:08:30.965Z,2.30
2018-12-01T23:10:59.809Z,2.63
2018-12-01T23:13:28.541Z,2.50
2018-12-01T23:15:57.181Z,2.70
2018-12-01T23:18:26.826Z,2.07
2018-12-01T23:20:55.889Z,2.30
2018-12-01T23:23:25.071Z,2.17
2018-12-01T23:25:53.892Z,1.97
2018-12-01T23:28:22.283Z,2.07
2018-12-01T23:30:54.126Z,1.90
2018-12-01T23:33:25.356Z,1.93
2018-12-01T23:35:54.357Z,2.10
2018-12-01T23:38:22.980Z,1.80
2018-12-01T23:40:51.842Z,1.70
2018-12-01T23:43:20.500Z,1.80
2018-12-01T23:45:48.824Z,1.80
2018-12-01T23:48:17.136Z,2.00
2018-12-01T23:50:50.749Z,1.90
2018-12-01T23:53:19.738Z,1.80
2018-12-01T23:55:48.069Z,1.97
2018-12-01T23:58:16.376Z,1.60
